Time;durP1;ratioP1;P1;durP2;ratioP2;P2;SDS_P1;SDS_P2;PMS_P1;PMS_P2;Temp;Humidity;BMP_temperature;BMP_pressure;BME280_temperature;BME280_humidity;BME280_pressure;Samples;Min_cycle;Max_cycle;Signal;HPM_P1;HPM_P2
2022/08/04 00:00:58;;;;;;;;;;;20.20;51.80;;;;;;5125190;27;20017;-45
2022/08/04 00:03:24;;;;;;;;;;;20.00;52.00;;;;;;5149853;27;19923;-46
2022/08/04 00:05:51;;;;;;;;;;;19.80;52.20;;;;;;5145003;27;20329;-48
2022/08/04 00:08:39;;;;;;;;;;;20.50;57.70;;;;;;5126638;27;19972;-46
2022/08/04 00:11:06;;;;;;;;;;;21.30;59.00;;;;;;5150361;27;20313;-46
2022/08/04 00:13:33;;;;;;;;;;;21.70;56.80;;;;;;5144616;27;19937;-45
2022/08/04 00:16:03;;;;;;;;;;;21.00;55.60;;;;;;5144464;27;20079;-46
2022/08/04 00:18:30;;;;;;;;;;;20.60;54.60;;;;;;5149214;27;20067;-50
2022/08/04 00:20:58;;;;;;;;;;;20.40;53.80;;;;;;5143482;27;19923;-47
2022/08/04 00:23:24;;;;;;;;;;;20.40;52.80;;;;;;5146817;27;19934;-53
2022/08/04 00:25:50;;;;;;;;;;;20.20;52.60;;;;;;5147633;27;19923;-45
2022/08/04 00:28:15;;;;;;;;;;;20.00;52.80;;;;;;5144765;27;19979;-47
2022/08/04 00:30:41;;;;;;;;;;;19.90;52.30;;;;;;5150020;27;19923;-49
2022/08/04 00:33:07;;;;;;;;;;;19.90;52.00;;;;;;5144358;27;19927;-48
2022/08/04 00:35:33;;;;;;;;;;;20.30;58.10;;;;;;5144280;27;20397;-46
2022/08/04 00:37:59;;;;;;;;;;;21.20;59.00;;;;;;5147265;27;19927;-46
2022/08/04 00:40:30;;;;;;;;;;;21.80;58.20;;;;;;5143488;27;20316;-48
2022/08/04 00:43:09;;;;;;;;;;;21.30;56.10;;;;;;5125707;27;20030;-48
2022/08/04 00:45:47;;;;;;;;;;;20.70;54.80;;;;;;5149863;27;20297;-45
2022/08/04 00:48:31;;;;;;;;;;;20.30;54.00;;;;;;5144040;27;20165;-46
2022/08/04 00:50:57;;;;;;;;;;;20.30;53.10;;;;;;5144292;27;20379;-46
2022/08/04 00:53:30;;;;;;;;;;;20.00;52.60;;;;;;5149357;27;19971;-45
2022/08/04 00:56:12;;;;;;;;;;;20.00;52.10;;;;;;5142615;27;20423;-45
2022/08/04 00:58:54;;;;;;;;;;;19.90;52.00;;;;;;5122180;27;20394;-48
2022/08/04 01:01:23;;;;;;;;;;;20.40;57.30;;;;;;5130683;27;19923;-50
2022/08/04 01:03:53;;;;;;;;;;;21.20;59.30;;;;;;5144122;27;19923;-47
2022/08/04 01:06:22;;;;;;;;;;;21.80;57.70;;;;;;5143530;27;20272;-49
2022/08/04 01:08:48;;;;;;;;;;;21.00;56.00;;;;;;5149242;27;20397;-47
2022/08/04 01:11:32;;;;;;;;;;;20.60;54.70;;;;;;5143829;27;19923;-45
2022/08/04 01:14:13;;;;;;;;;;;20.40;53.60;;;;;;5142267;27;20137;-47
2022/08/04 01:16:50;;;;;;;;;;;20.20;53.20;;;;;;5147954;27;19927;-50
2022/08/04 01:19:40;;;;;;;;;;;20.00;52.60;;;;;;5124849;27;19975;-44
2022/08/04 01:22:12;;;;;;;;;;;20.00;52.00;;;;;;5143353;27;19941;-47
2022/08/04 01:24:58;;;;;;;;;;;20.50;57.80;;;;;;5123373;27;19928;-48
2022/08/04 01:27:43;;;;;;;;;;;21.30;59.40;;;;;;5142699;27;20354;-46
2022/08/04 01:30:08;;;;;;;;;;;21.70;57.00;;;;;;5143169;27;19923;-48
2022/08/04 01:32:38;;;;;;;;;;;20.90;55.40;;;;;;5147185;27;19927;-45
2022/08/04 01:35:16;;;;;;;;;;;20.50;54.70;;;;;;5142333;27;19929;-46
2022/08/04 01:38:01;;;;;;;;;;;20.30;53.70;;;;;;5142943;27;20030;-45
2022/08/04 01:40:27;;;;;;;;;;;20.00;53.10;;;;;;5148438;27;19956;-46
2022/08/04 01:42:53;;;;;;;;;;;20.10;52.30;;;;;;5142926;27;19923;-46
2022/08/04 01:45:19;;;;;;;;;;;20.00;52.10;;;;;;5142607;27;19945;-46
2022/08/04 01:47:48;;;;;;;;;;;19.70;52.00;;;;;;5104294;27;19974;-47
2022/08/04 01:50:14;;;;;;;;;;;20.30;57.50;;;;;;5141786;27;19984;-46
2022/08/04 01:52:41;;;;;;;;;;;21.20;59.30;;;;;;5141296;27;20277;-47
2022/08/04 01:55:09;;;;;;;;;;;21.80;58.70;;;;;;5147894;27;19960;-47
2022/08/04 01:57:36;;;;;;;;;;;21.10;56.50;;;;;;5142723;27;19935;-46
2022/08/04 02:00:02;;;;;;;;;;;20.80;54.70;;;;;;5148249;27;20398;-46
2022/08/04 02:02:28;;;;;;;;;;;20.40;54.20;;;;;;5142510;27;19923;-44
2022/08/04 02:04:54;;;;;;;;;;;20.10;53.60;;;;;;5142357;27;19924;-47
2022/08/04 02:07:23;;;;;;;;;;;20.10;53.10;;;;;;5147779;27;19941;-46
2022/08/04 02:09:55;;;;;;;;;;;20.10;52.30;;;;;;5137116;27;20018;-50
2022/08/04 02:12:25;;;;;;;;;;;20.00;51.90;;;;;;5141905;27;19923;-47
2022/08/04 02:14:56;;;;;;;;;;;20.20;53.50;;;;;;5147860;27;20057;-52
2022/08/04 02:17:30;;;;;;;;;;;20.70;58.80;;;;;;5142617;27;19923;-47
2022/08/04 02:20:02;;;;;;;;;;;21.60;58.90;;;;;;5141938;27;20280;-50
2022/08/04 02:22:28;;;;;;;;;;;21.30;56.30;;;;;;5147723;27;20388;-47
2022/08/04 02:24:59;;;;;;;;;;;20.80;55.00;;;;;;5142149;27;19923;-45
2022/08/04 02:27:27;;;;;;;;;;;20.50;54.10;;;;;;5140882;27;20036;-47
2022/08/04 02:29:55;;;;;;;;;;;20.30;53.50;;;;;;5145343;27;20298;-46
2022/08/04 02:32:25;;;;;;;;;;;20.00;53.20;;;;;;5141902;27;19923;-47
2022/08/04 02:34:55;;;;;;;;;;;19.80;52.70;;;;;;5143482;27;19927;-46
2022/08/04 02:37:21;;;;;;;;;;;19.90;52.00;;;;;;5143217;27;20391;-46
2022/08/04 02:39:46;;;;;;;;;;;20.20;57.50;;;;;;5141377;27;20185;-47
2022/08/04 02:42:12;;;;;;;;;;;21.00;59.40;;;;;;5147210;27;20382;-46
2022/08/04 02:44:38;;;;;;;;;;;21.80;58.50;;;;;;5123151;27;19935;-48
2022/08/04 02:47:04;;;;;;;;;;;21.30;56.10;;;;;;5140118;27;19923;-46
2022/08/04 02:49:30;;;;;;;;;;;20.80;54.80;;;;;;5128224;27;19929;-47
2022/08/04 02:51:56;;;;;;;;;;;20.30;54.20;;;;;;5123173;27;19927;-43
2022/08/04 02:54:26;;;;;;;;;;;20.20;53.30;;;;;;5144516;27;20053;-56
2022/08/04 02:56:52;;;;;;;;;;;20.20;52.70;;;;;;5147158;27;19937;-48
2022/08/04 02:59:19;;;;;;;;;;;19.90;52.60;;;;;;5123133;27;19966;-47
2022/08/04 03:01:45;;;;;;;;;;;20.00;53.00;;;;;;5146690;27;19924;-46
2022/08/04 03:04:17;;;;;;;;;;;20.60;58.20;;;;;;5140497;27;19934;-46
2022/08/04 03:07:01;;;;;;;;;;;21.30;59.40;;;;;;5140378;27;19927;-45
2022/08/04 03:09:39;;;;;;;;;;;21.60;57.10;;;;;;5146884;27;20177;-45
2022/08/04 03:12:08;;;;;;;;;;;20.80;55.40;;;;;;5141529;27;19927;-45
2022/08/04 03:14:53;;;;;;;;;;;20.70;54.00;;;;;;5141368;27;19931;-46
2022/08/04 03:17:18;;;;;;;;;;;20.30;53.30;;;;;;5146725;27;19929;-45
2022/08/04 03:20:03;;;;;;;;;;;20.20;52.50;;;;;;5141145;27;19930;-47
2022/08/04 03:22:38;;;;;;;;;;;20.10;52.20;;;;;;5140147;27;19947;-50
2022/08/04 03:25:39;;;;;;;;;;;19.90;51.60;;;;;;5146002;27;20332;-48
2022/08/04 03:28:05;;;;;;;;;;;20.00;56.50;;;;;;5082550;28;19928;-45
2022/08/04 03:30:40;;;;;;;;;;;21.10;59.30;;;;;;5127960;27;19960;-47
2022/08/04 03:33:22;;;;;;;;;;;21.80;58.60;;;;;;5124600;27;19937;-55
2022/08/04 03:35:54;;;;;;;;;;;21.30;56.00;;;;;;5144666;27;19923;-45
2022/08/04 03:38:29;;;;;;;;;;;20.70;54.50;;;;;;5119806;27;19964;-47
2022/08/04 03:41:10;;;;;;;;;;;20.40;53.50;;;;;;5140509;27;19933;-53
2022/08/04 03:43:35;;;;;;;;;;;20.20;53.00;;;;;;5145946;27;20297;-48
2022/08/04 03:46:01;;;;;;;;;;;20.10;52.20;;;;;;5141141;27;19952;-49
2022/08/04 03:48:27;;;;;;;;;;;19.90;51.90;;;;;;5146538;27;20309;-51
2022/08/04 03:53:47;;;;;;;;;;;20.70;59.30;;;;;;5125342;27;19926;-47
2022/08/04 03:56:30;;;;;;;;;;;21.70;58.60;;;;;;5127429;27;20018;-57
2022/08/04 03:59:05;;;;;;;;;;;21.00;56.10;;;;;;5116423;27;20028;-46
2022/08/04 04:01:39;;;;;;;;;;;20.70;54.60;;;;;;5121529;27;19929;-47
2022/08/04 04:04:17;;;;;;;;;;;20.20;53.70;;;;;;5123544;27;20329;-57
2022/08/04 04:06:52;;;;;;;;;;;20.10;52.70;;;;;;5146429;27;19923;-47
2022/08/04 04:09:25;;;;;;;;;;;20.10;52.00;;;;;;5141016;27;19929;-46
2022/08/04 04:12:03;;;;;;;;;;;20.00;51.80;;;;;;5123206;27;20375;-54
2022/08/04 04:14:44;;;;;;;;;;;20.50;57.90;;;;;;5130527;27;20246;-47
2022/08/04 04:17:15;;;;;;;;;;;21.30;59.20;;;;;;5143831;27;20411;-49
2022/08/04 04:19:50;;;;;;;;;;;21.30;57.00;;;;;;5143216;27;20006;-45
2022/08/04 04:22:20;;;;;;;;;;;20.80;55.00;;;;;;5131160;27;20400;-51
2022/08/04 04:24:45;;;;;;;;;;;20.50;54.20;;;;;;5144371;27;19948;-46
2022/08/04 04:27:30;;;;;;;;;;;20.20;53.20;;;;;;5148999;27;20004;-54
2022/08/04 04:30:11;;;;;;;;;;;20.00;52.60;;;;;;5149573;27;19933;-46
2022/08/04 04:32:55;;;;;;;;;;;19.90;52.10;;;;;;5144361;27;19940;-47
2022/08/04 04:35:21;;;;;;;;;;;20.30;56.70;;;;;;5143505;27;19923;-46
2022/08/04 04:37:47;;;;;;;;;;;21.10;59.30;;;;;;5148491;27;20033;-49
2022/08/04 04:40:33;;;;;;;;;;;21.80;57.60;;;;;;5143753;27;19926;-49
2022/08/04 04:43:01;;;;;;;;;;;21.00;56.10;;;;;;5143120;27;19923;-48
2022/08/04 04:45:40;;;;;;;;;;;20.60;54.60;;;;;;5149679;27;20627;-48
2022/08/04 04:48:07;;;;;;;;;;;20.30;53.80;;;;;;5125287;27;19988;-48
2022/08/04 04:50:35;;;;;;;;;;;20.20;52.70;;;;;;5145190;27;19927;-55
2022/08/04 04:53:01;;;;;;;;;;;20.00;52.00;;;;;;5149404;27;19929;-48
2022/08/04 04:55:27;;;;;;;;;;;19.80;51.80;;;;;;5142325;27;20298;-46
2022/08/04 04:57:55;;;;;;;;;;;19.70;51.70;;;;;;5149106;27;19940;-48
2022/08/04 05:00:25;;;;;;;;;;;20.30;56.80;;;;;;5125127;27;20279;-50
2022/08/04 05:03:09;;;;;;;;;;;21.20;58.40;;;;;;5144060;27;19923;-46
2022/08/04 05:05:54;;;;;;;;;;;21.80;57.30;;;;;;5149480;27;20335;-47
2022/08/04 05:08:23;;;;;;;;;;;21.00;55.60;;;;;;5145254;27;19934;-46
2022/08/04 05:11:04;;;;;;;;;;;20.60;54.00;;;;;;5143843;27;19930;-45
2022/08/04 05:13:33;;;;;;;;;;;20.30;53.30;;;;;;5129085;27;19975;-46
2022/08/04 05:16:07;;;;;;;;;;;20.10;52.70;;;;;;5124499;27;20275;-51
2022/08/04 05:18:33;;;;;;;;;;;19.90;52.40;;;;;;5125188;27;19923;-45
2022/08/04 05:21:08;;;;;;;;;;;19.90;51.80;;;;;;5102118;27;20006;-47
2022/08/04 05:23:35;;;;;;;;;;;20.50;57.40;;;;;;5120389;27;19923;-50
2022/08/04 05:26:05;;;;;;;;;;;21.30;58.90;;;;;;5121898;27;19974;-48
2022/08/04 05:28:31;;;;;;;;;;;21.70;57.20;;;;;;5148686;27;19923;-45
2022/08/04 05:31:23;;;;;;;;;;;20.90;55.30;;;;;;5142279;27;20275;-46
2022/08/04 05:33:56;;;;;;;;;;;20.70;54.50;;;;;;5139203;27;20018;-47
2022/08/04 05:36:23;;;;;;;;;;;20.40;53.20;;;;;;5130000;27;19927;-50
2022/08/04 05:38:50;;;;;;;;;;;20.30;52.80;;;;;;5107824;27;19930;-47
2022/08/04 05:41:15;;;;;;;;;;;20.00;52.20;;;;;;5119385;27;19956;-48
2022/08/04 05:43:42;;;;;;;;;;;19.90;52.50;;;;;;5119872;27;19924;-47
2022/08/04 05:46:08;;;;;;;;;;;20.00;51.60;;;;;;5124500;27;20410;-46
2022/08/04 05:48:34;;;;;;;;;;;20.20;56.10;;;;;;5144886;27;20398;-54
2022/08/04 05:51:00;;;;;;;;;;;20.90;58.80;;;;;;5145299;27;19934;-49
2022/08/04 05:53:26;;;;;;;;;;;21.80;58.30;;;;;;5142430;27;19923;-47
2022/08/04 05:55:51;;;;;;;;;;;21.30;56.30;;;;;;5148183;27;20175;-48
2022/08/04 05:58:17;;;;;;;;;;;20.80;54.90;;;;;;5143035;27;19923;-45
2022/08/04 06:00:43;;;;;;;;;;;20.60;54.00;;;;;;5124206;27;19930;-45
2022/08/04 06:03:09;;;;;;;;;;;20.30;53.50;;;;;;5147957;27;20323;-44
2022/08/04 06:05:35;;;;;;;;;;;20.30;52.70;;;;;;5142426;27;20832;-47
2022/08/04 06:08:01;;;;;;;;;;;20.10;52.20;;;;;;5141457;27;19974;-51
2022/08/04 06:10:26;;;;;;;;;;;20.00;52.30;;;;;;5146857;27;19927;-49
2022/08/04 06:12:54;;;;;;;;;;;20.10;53.90;;;;;;5142492;27;20397;-46
2022/08/04 06:15:20;;;;;;;;;;;20.80;58.60;;;;;;5147996;27;19923;-46
2022/08/04 06:17:50;;;;;;;;;;;21.50;58.70;;;;;;5116451;27;19923;-52
2022/08/04 06:20:16;;;;;;;;;;;21.30;56.60;;;;;;5118072;27;19946;-46
2022/08/04 06:22:42;;;;;;;;;;;20.80;55.20;;;;;;5147669;27;19927;-44
2022/08/04 06:25:08;;;;;;;;;;;20.70;54.00;;;;;;5142254;27;21054;-49
2022/08/04 06:27:33;;;;;;;;;;;20.40;53.00;;;;;;5114616;27;20283;-47
2022/08/04 06:29:59;;;;;;;;;;;20.30;53.20;;;;;;5147260;27;19930;-49
2022/08/04 06:32:35;;;;;;;;;;;20.00;53.10;;;;;;5121415;27;20369;-45
2022/08/04 06:35:02;;;;;;;;;;;20.00;52.60;;;;;;5144362;27;19927;-52
2022/08/04 06:37:28;;;;;;;;;;;20.00;51.90;;;;;;5145644;27;19929;-47
2022/08/04 06:39:54;;;;;;;;;;;20.10;53.30;;;;;;5142156;27;20014;-47
2022/08/04 06:42:21;;;;;;;;;;;20.70;58.50;;;;;;5147290;27;20298;-48
2022/08/04 06:44:48;;;;;;;;;;;21.50;58.70;;;;;;5140608;27;19926;-51
2022/08/04 06:47:17;;;;;;;;;;;21.80;57.20;;;;;;5122605;27;20009;-46
2022/08/04 06:49:44;;;;;;;;;;;20.90;55.50;;;;;;5147440;27;20021;-46
2022/08/04 06:52:16;;;;;;;;;;;20.70;54.20;;;;;;5142102;27;19931;-45
2022/08/04 06:54:49;;;;;;;;;;;20.30;53.80;;;;;;5142059;27;20227;-46
2022/08/04 06:57:25;;;;;;;;;;;20.50;53.10;;;;;;5128872;27;19924;-46
2022/08/04 06:59:53;;;;;;;;;;;20.50;52.40;;;;;;5141781;27;20396;-44
2022/08/04 07:02:26;;;;;;;;;;;20.20;52.60;;;;;;5123075;27;20046;-46
2022/08/04 07:04:52;;;;;;;;;;;20.00;52.50;;;;;;5127383;27;19927;-45
2022/08/04 07:07:19;;;;;;;;;;;19.90;52.90;;;;;;5141203;27;19934;-48
2022/08/04 07:09:45;;;;;;;;;;;19.90;52.50;;;;;;5146313;27;19927;-54
2022/08/04 07:12:11;;;;;;;;;;;20.30;56.20;;;;;;5142681;27;19923;-46
2022/08/04 07:14:37;;;;;;;;;;;21.00;59.40;;;;;;5140407;27;19923;-50
2022/08/04 07:17:03;;;;;;;;;;;21.80;59.10;;;;;;5128794;27;19923;-48
2022/08/04 07:19:30;;;;;;;;;;;21.30;56.70;;;;;;5123443;27;19923;-46
2022/08/04 07:21:56;;;;;;;;;;;20.90;55.00;;;;;;5118777;27;19924;-47
2022/08/04 07:24:28;;;;;;;;;;;20.80;53.90;;;;;;5124379;27;19932;-46
2022/08/04 07:26:54;;;;;;;;;;;20.60;53.40;;;;;;5141258;27;19923;-45
2022/08/04 07:29:20;;;;;;;;;;;20.20;53.40;;;;;;5141606;27;20283;-47
2022/08/04 07:31:47;;;;;;;;;;;20.30;52.80;;;;;;5128687;27;19951;-47
2022/08/04 07:34:12;;;;;;;;;;;20.30;52.30;;;;;;5141439;27;19923;-45
2022/08/04 07:36:38;;;;;;;;;;;20.40;52.10;;;;;;5128319;27;19934;-46
2022/08/04 07:39:04;;;;;;;;;;;20.20;52.80;;;;;;5122126;27;19972;-46
2022/08/04 07:41:30;;;;;;;;;;;20.30;52.00;;;;;;5139941;27;20402;-47
2022/08/04 07:43:55;;;;;;;;;;;20.00;52.00;;;;;;5120508;27;20345;-48
2022/08/04 07:46:21;;;;;;;;;;;20.00;53.40;;;;;;5141413;27;20038;-46
2022/08/04 07:48:47;;;;;;;;;;;20.80;58.30;;;;;;5144907;27;19968;-46
2022/08/04 07:51:13;;;;;;;;;;;21.40;59.80;;;;;;5150491;27;19923;-45
2022/08/04 07:53:38;;;;;;;;;;;21.80;57.90;;;;;;5145083;27;19934;-47
2022/08/04 07:56:04;;;;;;;;;;;21.20;56.20;;;;;;5132178;27;20026;-45
2022/08/04 07:58:30;;;;;;;;;;;21.00;54.60;;;;;;5143896;27;20048;-46
2022/08/04 08:00:56;;;;;;;;;;;20.70;53.80;;;;;;5144124;27;20294;-46
2022/08/04 08:03:22;;;;;;;;;;;20.60;53.20;;;;;;5131881;27;19973;-45
2022/08/04 08:05:48;;;;;;;;;;;20.50;52.70;;;;;;5145034;27;19929;-47
2022/08/04 08:08:14;;;;;;;;;;;20.40;52.50;;;;;;5145281;27;19923;-46
2022/08/04 08:10:44;;;;;;;;;;;20.40;52.00;;;;;;5150282;27;19927;-45
2022/08/04 08:13:10;;;;;;;;;;;20.20;52.80;;;;;;5145000;27;20021;-45
2022/08/04 08:15:36;;;;;;;;;;;20.20;52.60;;;;;;5148100;27;19923;-55
2022/08/04 08:18:01;;;;;;;;;;;20.30;52.10;;;;;;5126666;27;19972;-47
2022/08/04 08:20:28;;;;;;;;;;;19.90;52.50;;;;;;5144121;27;19966;-45
2022/08/04 08:22:54;;;;;;;;;;;20.10;51.90;;;;;;5131283;27;19971;-47
2022/08/04 08:25:20;;;;;;;;;;;20.20;51.90;;;;;;5113027;27;19927;-45
2022/08/04 08:27:46;;;;;;;;;;;20.10;51.60;;;;;;5125940;27;20275;-46
2022/08/04 08:30:12;;;;;;;;;;;20.00;54.00;;;;;;5150178;27;20302;-46
2022/08/04 08:32:37;;;;;;;;;;;20.80;58.20;;;;;;5144474;27;20022;-46
2022/08/04 08:35:03;;;;;;;;;;;21.40;59.90;;;;;;5144327;27;19931;-54
2022/08/04 08:37:32;;;;;;;;;;;21.90;58.10;;;;;;5148143;27;20017;-45
2022/08/04 08:40:20;;;;;;;;;;;21.30;56.10;;;;;;5125894;27;19923;-45
2022/08/04 08:43:04;;;;;;;;;;;21.00;54.50;;;;;;5145848;27;20374;-53
2022/08/04 08:45:30;;;;;;;;;;;20.70;53.70;;;;;;5149828;27;19975;-48
2022/08/04 08:47:56;;;;;;;;;;;20.50;53.20;;;;;;5144253;27;20377;-46
2022/08/04 08:50:22;;;;;;;;;;;20.40;52.60;;;;;;5149530;27;19947;-52
2022/08/04 08:52:57;;;;;;;;;;;20.30;52.40;;;;;;5143478;27;19923;-47
2022/08/04 08:55:43;;;;;;;;;;;20.40;52.00;;;;;;5143077;27;19923;-46
2022/08/04 08:58:20;;;;;;;;;;;20.30;52.20;;;;;;5115684;27;20021;-53
2022/08/04 09:01:03;;;;;;;;;;;20.20;52.10;;;;;;5130181;27;20374;-45
2022/08/04 09:03:47;;;;;;;;;;;20.20;52.10;;;;;;5144171;27;19930;-48
2022/08/04 09:06:28;;;;;;;;;;;20.20;51.90;;;;;;5143920;27;20014;-46
2022/08/04 09:08:53;;;;;;;;;;;20.20;52.00;;;;;;5130752;27;20426;-47
2022/08/04 09:11:23;;;;;;;;;;;20.30;51.60;;;;;;5142615;27;19923;-46
2022/08/04 09:13:55;;;;;;;;;;;20.20;51.60;;;;;;5142699;27;20307;-51
2022/08/04 09:16:31;;;;;;;;;;;20.10;53.90;;;;;;5148760;27;20340;-49
2022/08/04 09:19:09;;;;;;;;;;;20.80;58.10;;;;;;5125034;27;20419;-46
2022/08/04 09:21:37;;;;;;;;;;;21.60;59.00;;;;;;5125261;27;20400;-46
2022/08/04 09:24:17;;;;;;;;;;;21.80;57.70;;;;;;5148719;27;19927;-45
2022/08/04 09:26:46;;;;;;;;;;;21.20;56.10;;;;;;5118247;27;20293;-45
2022/08/04 09:29:11;;;;;;;;;;;20.80;54.70;;;;;;5145115;27;19934;-55
2022/08/04 09:31:45;;;;;;;;;;;20.80;53.50;;;;;;5145316;27;19923;-47
2022/08/04 09:34:19;;;;;;;;;;;20.60;53.10;;;;;;5142703;27;20014;-46
2022/08/04 09:37:03;;;;;;;;;;;20.60;52.60;;;;;;5115046;27;20370;-45
2022/08/04 09:39:35;;;;;;;;;;;20.50;52.50;;;;;;5148576;27;19933;-45
2022/08/04 09:42:15;;;;;;;;;;;20.40;52.40;;;;;;5124410;27;19926;-45
2022/08/04 09:44:51;;;;;;;;;;;20.30;52.30;;;;;;5145217;27;19931;-53
2022/08/04 09:47:34;;;;;;;;;;;20.30;52.00;;;;;;5148355;27;19927;-46
2022/08/04 09:50:08;;;;;;;;;;;20.20;52.40;;;;;;5141615;27;19923;-49
2022/08/04 09:52:41;;;;;;;;;;;20.20;51.90;;;;;;5124294;27;20453;-44
2022/08/04 09:55:30;;;;;;;;;;;20.10;52.30;;;;;;5147124;27;20045;-48
2022/08/04 09:58:00;;;;;;;;;;;20.30;51.80;;;;;;5112903;27;19931;-46
2022/08/04 10:00:26;;;;;;;;;;;20.10;51.90;;;;;;5114811;27;20200;-46
2022/08/04 10:02:52;;;;;;;;;;;20.00;52.20;;;;;;5129823;27;20022;-45
2022/08/04 10:05:22;;;;;;;;;;;20.10;53.00;;;;;;5124118;27;19924;-46
2022/08/04 10:08:12;;;;;;;;;;;20.80;57.30;;;;;;5127592;27;19997;-50
2022/08/04 10:10:55;;;;;;;;;;;21.50;58.60;;;;;;5121338;27;19923;-49
2022/08/04 10:13:33;;;;;;;;;;;21.90;57.00;;;;;;5142442;27;19923;-46
2022/08/04 10:16:04;;;;;;;;;;;21.20;55.50;;;;;;5142694;27;19953;-46
2022/08/04 10:18:49;;;;;;;;;;;20.80;54.40;;;;;;5147809;27;19938;-46
2022/08/04 10:21:22;;;;;;;;;;;20.80;53.40;;;;;;5142233;27;19950;-47
2022/08/04 10:24:02;;;;;;;;;;;20.80;52.50;;;;;;5123801;27;20389;-47
2022/08/04 10:26:30;;;;;;;;;;;20.50;52.70;;;;;;5146267;27;19954;-44
2022/08/04 10:29:02;;;;;;;;;;;20.50;52.30;;;;;;5115689;27;19930;-46
2022/08/04 10:31:29;;;;;;;;;;;20.60;51.80;;;;;;5142178;27;19927;-45
2022/08/04 10:34:05;;;;;;;;;;;20.50;51.80;;;;;;5148012;27;19930;-46
2022/08/04 10:36:43;;;;;;;;;;;20.30;52.00;;;;;;5142097;27;20316;-45
2022/08/04 10:39:11;;;;;;;;;;;20.30;51.80;;;;;;5142156;27;20281;-47
2022/08/04 10:42:01;;;;;;;;;;;20.40;51.50;;;;;;5120619;27;19942;-46
2022/08/04 10:44:45;;;;;;;;;;;20.30;51.80;;;;;;5140377;27;20346;-49
2022/08/04 10:47:18;;;;;;;;;;;20.30;51.50;;;;;;5122899;27;19945;-45
2022/08/04 10:49:45;;;;;;;;;;;20.30;51.40;;;;;;5129031;27;19923;-46
2022/08/04 10:52:11;;;;;;;;;;;20.20;51.40;;;;;;5123759;27;19923;-46
2022/08/04 10:54:42;;;;;;;;;;;20.10;51.80;;;;;;5121327;27;19935;-47
2022/08/04 10:57:18;;;;;;;;;;;20.20;53.90;;;;;;5147382;27;19927;-50
2022/08/04 10:59:59;;;;;;;;;;;21.00;57.20;;;;;;5141908;27;19929;-51
2022/08/04 11:02:43;;;;;;;;;;;21.80;57.70;;;;;;5140482;27;19934;-46
2022/08/04 11:05:09;;;;;;;;;;;21.50;55.60;;;;;;5146564;27;19934;-48
2022/08/04 11:07:35;;;;;;;;;;;21.10;54.10;;;;;;5141333;27;19923;-45
2022/08/04 11:10:01;;;;;;;;;;;20.80;53.30;;;;;;5141776;27;19923;-47
2022/08/04 11:12:27;;;;;;;;;;;20.80;52.60;;;;;;5147284;27;19929;-46
2022/08/04 11:15:00;;;;;;;;;;;20.60;52.50;;;;;;5123218;27;19930;-46
2022/08/04 11:17:36;;;;;;;;;;;20.70;51.80;;;;;;5147136;27;20002;-48
2022/08/04 11:20:11;;;;;;;;;;;20.60;51.60;;;;;;5114471;27;19976;-46
2022/08/04 11:22:43;;;;;;;;;;;20.60;51.50;;;;;;5142055;27;20149;-49
2022/08/04 11:25:13;;;;;;;;;;;20.50;51.40;;;;;;5132655;27;19933;-48
2022/08/04 11:27:57;;;;;;;;;;;20.40;51.60;;;;;;5146409;27;19926;-46
2022/08/04 11:30:23;;;;;;;;;;;20.30;51.60;;;;;;5145982;27;20042;-47
2022/08/04 11:32:55;;;;;;;;;;;20.30;51.70;;;;;;5151114;27;20414;-47
2022/08/04 11:35:41;;;;;;;;;;;20.40;51.00;;;;;;5145679;27;19923;-46
2022/08/04 11:38:24;;;;;;;;;;;20.50;50.90;;;;;;5133526;27;20453;-46
2022/08/04 11:40:51;;;;;;;;;;;20.30;51.30;;;;;;5127577;27;19933;-52
2022/08/04 11:43:34;;;;;;;;;;;20.50;50.90;;;;;;5149798;27;20071;-44
2022/08/04 11:46:00;;;;;;;;;;;20.40;51.00;;;;;;5123066;27;19927;-44
2022/08/04 11:48:28;;;;;;;;;;;20.40;50.90;;;;;;5150609;27;20386;-53
2022/08/04 11:50:55;;;;;;;;;;;20.20;51.10;;;;;;5146797;27;20068;-46
2022/08/04 11:53:25;;;;;;;;;;;20.30;51.10;;;;;;5144971;27;20223;-49
2022/08/04 11:55:52;;;;;;;;;;;20.20;51.10;;;;;;5131968;27;19927;-46
2022/08/04 11:58:18;;;;;;;;;;;20.20;51.00;;;;;;5143680;27;19937;-45
2022/08/04 12:00:55;;;;;;;;;;;20.20;51.10;;;;;;5117540;27;19923;-45
2022/08/04 12:03:29;;;;;;;;;;;20.20;50.80;;;;;;5131861;27;19960;-46
2022/08/04 12:06:14;;;;;;;;;;;20.30;51.00;;;;;;5126687;27;20022;-47
2022/08/04 12:08:50;;;;;;;;;;;20.10;51.10;;;;;;5145154;27;20383;-47
2022/08/04 12:11:35;;;;;;;;;;;20.10;51.10;;;;;;5131835;27;19927;-46
2022/08/04 12:14:19;;;;;;;;;;;20.80;54.60;;;;;;5144778;27;20414;-48
2022/08/04 12:16:54;;;;;;;;;;;21.60;55.70;;;;;;5143180;27;20545;-47
2022/08/04 12:19:22;;;;;;;;;;;21.90;54.70;;;;;;5149682;27;19923;-46
2022/08/04 12:21:49;;;;;;;;;;;21.20;54.00;;;;;;5126324;27;19929;-46
2022/08/04 12:24:35;;;;;;;;;;;21.10;53.10;;;;;;5144843;27;19927;-45
2022/08/04 12:27:10;;;;;;;;;;;21.00;52.20;;;;;;5149427;27;19992;-47
2022/08/04 12:29:36;;;;;;;;;;;20.80;52.00;;;;;;5145592;27;19933;-46
2022/08/04 12:32:03;;;;;;;;;;;20.70;51.70;;;;;;5126128;27;19927;-46
2022/08/04 12:35:01;;;;;;;;;;;20.70;51.40;;;;;;5128805;27;20009;-47
2022/08/04 12:37:34;;;;;;;;;;;20.50;51.50;;;;;;5112573;27;19937;-44
2022/08/04 12:40:01;;;;;;;;;;;20.40;51.40;;;;;;5125738;27;20029;-46
2022/08/04 12:42:28;;;;;;;;;;;20.50;51.10;;;;;;5131564;27;19927;-46
2022/08/04 12:44:54;;;;;;;;;;;20.30;51.40;;;;;;5125578;27;20017;-46
2022/08/04 12:47:24;;;;;;;;;;;20.40;50.90;;;;;;5125762;27;19934;-50
2022/08/04 12:49:50;;;;;;;;;;;20.50;50.90;;;;;;5125219;27;20014;-45
2022/08/04 12:52:16;;;;;;;;;;;20.40;50.80;;;;;;5142715;27;19923;-49
2022/08/04 12:54:44;;;;;;;;;;;20.30;50.90;;;;;;5143171;27;20491;-47
2022/08/04 12:57:10;;;;;;;;;;;20.40;50.80;;;;;;5123384;27;19923;-45
2022/08/04 12:59:36;;;;;;;;;;;20.40;50.80;;;;;;5144145;27;20335;-45
2022/08/04 13:02:02;;;;;;;;;;;20.40;50.70;;;;;;5148210;27;19927;-55
2022/08/04 13:04:28;;;;;;;;;;;20.30;50.80;;;;;;5145666;27;19930;-47
2022/08/04 13:07:04;;;;;;;;;;;20.30;51.10;;;;;;5143647;27;19995;-46
2022/08/04 13:09:31;;;;;;;;;;;20.30;50.70;;;;;;5148808;27;20426;-45
2022/08/04 13:12:23;;;;;;;;;;;20.20;50.80;;;;;;5123673;27;20241;-44
2022/08/04 13:14:50;;;;;;;;;;;20.20;50.90;;;;;;5140186;27;19947;-46
2022/08/04 13:17:16;;;;;;;;;;;20.30;50.50;;;;;;5130416;27;19930;-49
2022/08/04 13:19:45;;;;;;;;;;;20.30;50.40;;;;;;5143780;27;19930;-45
2022/08/04 13:22:11;;;;;;;;;;;20.30;50.60;;;;;;5124868;27;19945;-44
2022/08/04 13:24:36;;;;;;;;;;;20.30;50.70;;;;;;5148872;27;20359;-45
2022/08/04 13:27:07;;;;;;;;;;;20.10;50.80;;;;;;5143441;27;20374;-48
2022/08/04 13:29:37;;;;;;;;;;;20.70;54.30;;;;;;5141934;27;20170;-45
2022/08/04 13:32:03;;;;;;;;;;;21.60;55.10;;;;;;5148011;27;20022;-46
2022/08/04 13:34:29;;;;;;;;;;;21.90;54.10;;;;;;5143060;27;20194;-46
2022/08/04 13:36:55;;;;;;;;;;;21.30;53.50;;;;;;5146143;27;19923;-54
2022/08/04 13:39:20;;;;;;;;;;;20.90;53.00;;;;;;5146198;27;19923;-48
2022/08/04 13:41:53;;;;;;;;;;;20.90;52.30;;;;;;5143056;27;19923;-46
2022/08/04 13:44:19;;;;;;;;;;;20.90;51.40;;;;;;5148538;27;19923;-47
2022/08/04 13:46:46;;;;;;;;;;;20.90;51.30;;;;;;5141782;27;19927;-45
2022/08/04 13:49:13;;;;;;;;;;;20.80;51.20;;;;;;5141721;27;19923;-46
2022/08/04 13:51:39;;;;;;;;;;;20.80;51.00;;;;;;5148304;27;19923;-45
2022/08/04 13:54:05;;;;;;;;;;;20.60;51.20;;;;;;5142843;27;19934;-44
2022/08/04 13:56:32;;;;;;;;;;;20.70;50.90;;;;;;5142897;27;19923;-46
2022/08/04 13:58:58;;;;;;;;;;;20.70;50.90;;;;;;5119483;27;19930;-44
2022/08/04 14:01:25;;;;;;;;;;;20.70;50.80;;;;;;5142508;27;20029;-45
2022/08/04 14:03:51;;;;;;;;;;;20.50;51.00;;;;;;5129701;27;19934;-47
2022/08/04 14:06:19;;;;;;;;;;;20.60;50.60;;;;;;5141240;27;19923;-46
2022/08/04 14:08:46;;;;;;;;;;;20.40;51.00;;;;;;5142321;27;20371;-46
2022/08/04 14:11:12;;;;;;;;;;;20.70;50.20;;;;;;5148134;27;20033;-45
2022/08/04 14:13:38;;;;;;;;;;;20.60;50.20;;;;;;5124114;27;20022;-45
2022/08/04 14:16:17;;;;;;;;;;;20.50;50.70;;;;;;5116759;27;20495;-46
2022/08/04 14:18:43;;;;;;;;;;;20.50;50.70;;;;;;5147936;27;20013;-46
2022/08/04 14:21:10;;;;;;;;;;;20.50;50.30;;;;;;5142151;27;20056;-45
2022/08/04 14:23:46;;;;;;;;;;;20.50;50.30;;;;;;5141287;27;19945;-52
2022/08/04 14:26:15;;;;;;;;;;;20.70;50.00;;;;;;5146511;27;19923;-46
2022/08/04 14:28:41;;;;;;;;;;;20.50;50.20;;;;;;5141842;27;20029;-45
2022/08/04 14:31:08;;;;;;;;;;;20.30;50.90;;;;;;5145066;27;19927;-53
2022/08/04 14:33:41;;;;;;;;;;;20.30;50.70;;;;;;5146118;27;19926;-45
2022/08/04 14:36:07;;;;;;;;;;;20.30;50.60;;;;;;5142053;27;19931;-46
2022/08/04 14:38:42;;;;;;;;;;;20.50;50.20;;;;;;5147624;27;20032;-47
2022/08/04 14:41:07;;;;;;;;;;;20.40;50.60;;;;;;5140034;27;19991;-46